Date,TemperatureHighF,TemperatureAvgF,TemperatureLowF,DewpointHighF,DewpointAvgF,DewpointLowF,HumidityHigh,HumidityAvg,HumidityLow,PressureMaxIn,PressureMinIn,WindSpeedMaxMPH,WindSpeedAvgMPH,GustSpeedMaxMPH,PrecipitationSumIn
2013-8-1,75,67,56,67,62,54,92,84,68,29.91,29.79,11,2,12,0.06
2013-8-2,75,64,51,64,57,49,93,79,58,29.92,29.86,6,1,12,0.01
2013-8-3,74,67,53,65,59,50,92,76,52,29.96,29.85,8,2,14,0.00
2013-8-4,71,60,51,60,55,48,93,83,59,30.09,29.96,9,1,13,0.10
2013-8-5,72,58,41,61,51,39,93,78,45,30.14,30.02,4,0,5,0.00
2013-8-6,80,65,49,64,56,47,93,76,48,30.03,29.95,11,1,11,0.00
2013-8-7,80,69,59,70,64,57,92,84,67,29.96,29.86,9,2,14,0.07
2013-8-8,81,72,66,75,69,63,92,88,77,29.94,29.88,6,1,8,0.04
2013-8-9,77,68,53,68,63,51,92,86,62,29.98,29.84,6,1,8,0.10
2013-8-10,75,63,50,63,55,48,93,78,47,30.11,29.98,8,1,9,0.00
2013-8-11,79,64,50,64,55,48,93,76,47,30.13,30.02,4,0,7,0.00
2013-8-12,74,62,53,66,59,51,93,89,69,30.06,29.84,4,0,8,0.09
2013-8-13,66,62,50,64,57,47,93,85,67,29.94,29.76,12,2,15,1.75
2013-8-14,66,57,48,55,51,46,92,81,59,30.14,29.93,8,1,11,0.01
2013-8-15,70,57,39,59,51,37,93,81,61,30.19,30.11,6,1,11,0.00
2013-8-16,77,56,41,59,48,39,93,79,42,30.20,30.14,4,0,8,0.00
2013-8-17,80,61,44,64,54,42,93,78,48,30.27,30.19,5,1,8,0.00
2013-8-18,78,62,49,65,57,47,93,84,60,30.23,30.11,5,1,8,0.00
2013-8-19,77,66,53,69,61,51,93,84,63,30.12,30.04,6,0,7,0.00
2013-8-20,81,63,47,67,57,45,93,81,55,30.16,30.08,6,0,11,0.00
2013-8-21,86,67,50,69,59,48,93,80,46,30.18,30.03,5,0,6,0.00
2013-8-22,81,69,57,72,64,55,93,85,68,30.06,29.94,9,1,12,0.00
2013-8-23,79,67,51,64,58,49,93,74,40,30.17,29.97,9,1,11,0.00
2013-8-24,81,62,43,60,52,40,93,73,35,30.32,30.17,4,1,6,0.00
2013-8-25,82,68,45,65,57,43,93,72,42,30.35,30.18,7,1,10,0.00
2013-8-26,84,73,64,69,63,58,91,72,52,30.20,29.94,12,2,16,0.65
2013-8-27,83,72,65,75,68,62,91,87,74,29.95,29.85,8,1,9,0.00
2013-8-28,78,71,68,73,68,65,91,90,84,29.92,29.79,5,1,8,2.05
2013-8-29,85,74,64,72,67,61,91,80,59,30.02,29.91,5,1,8,0.01
2013-8-30,84,69,59,71,63,56,90,84,63,29.99,29.76,11,1,11,0.00
2013-8-31,81,74,66,74,69,63,90,85,76,29.80,29.71,5,1,8,0.00